Graytown, Ohio
Current Conditions -  °F | °C
As of 4:53 PM on Wednesday 22 Oct 2014 (Local Time) from KTDZ Reporting Station
Broken Clouds Broken Clouds  
Wind Chill: 54°   Ceiling: 3600
Heat Index: 54°   Visibility: 10mi
Dew Point: 40°   Wind: 7mph
Humidity: 59%   Direction: 330°NNW
Pressure: 30.29"   Gusts: NA
Location:  41.54°N, 83.26°W
Report Text: KTDZ 222053Z AUTO 33006KT 10SM BKN036 12/04 A3029 RMK AO2 SLP258 T01220044 56010 TSNO
Loading
Personal Weather Stations






























Interactive Weather Map
Tropical Storm Tracking
New forecast layout! Learn more

10-Day Weather Forecast

Advertisements
Track Severe Weather on mobile